sensor_id;sensor_type;location;lat;lon;timestamp;P1;durP1;ratioP1;P2;durP2;ratioP2
6358;SDS011;3212;51.460;11.868;2023-06-14T00:02:20;3.40;;;3.00;;
6358;SDS011;3212;51.460;11.868;2023-06-14T00:05:49;5.20;;;3.50;;
6358;SDS011;3212;51.460;11.868;2023-06-14T00:09:14;6.43;;;2.80;;
6358;SDS011;3212;51.460;11.868;2023-06-14T00:12:36;3.43;;;2.57;;
6358;SDS011;3212;51.460;11.868;2023-06-14T00:15:59;2.47;;;2.27;;
6358;SDS011;3212;51.460;11.868;2023-06-14T00:19:22;3.37;;;2.13;;
6358;SDS011;3212;51.460;11.868;2023-06-14T00:22:44;4.03;;;2.23;;
6358;SDS011;3212;51.460;11.868;2023-06-14T00:26:07;3.50;;;2.43;;
6358;SDS011;3212;51.460;11.868;2023-06-14T00:29:30;4.10;;;2.30;;
6358;SDS011;3212;51.460;11.868;2023-06-14T00:32:52;4.63;;;2.30;;
6358;SDS011;3212;51.460;11.868;2023-06-14T00:36:15;5.10;;;2.40;;
6358;SDS011;3212;51.460;11.868;2023-06-14T00:39:37;2.43;;;2.23;;
6358;SDS011;3212;51.460;11.868;2023-06-14T00:43:00;3.77;;;2.10;;
6358;SDS011;3212;51.460;11.868;2023-06-14T00:46:23;6.30;;;2.30;;
6358;SDS011;3212;51.460;11.868;2023-06-14T00:49:47;5.80;;;2.40;;
6358;SDS011;3212;51.460;11.868;2023-06-14T00:53:09;2.80;;;2.50;;
6358;SDS011;3212;51.460;11.868;2023-06-14T00:56:35;2.50;;;2.30;;
6358;SDS011;3212;51.460;11.868;2023-06-14T00:59:56;3.70;;;2.60;;
6358;SDS011;3212;51.460;11.868;2023-06-14T01:03:19;2.67;;;2.40;;
6358;SDS011;3212;51.460;11.868;2023-06-14T01:06:45;3.07;;;2.60;;
6358;SDS011;3212;51.460;11.868;2023-06-14T01:10:12;2.70;;;2.50;;
6358;SDS011;3212;51.460;11.868;2023-06-14T01:13:34;2.47;;;2.27;;
6358;SDS011;3212;51.460;11.868;2023-06-14T01:16:56;2.60;;;2.40;;
6358;SDS011;3212;51.460;11.868;2023-06-14T01:23:51;2.87;;;2.50;;
6358;SDS011;3212;51.460;11.868;2023-06-14T01:27:14;3.90;;;2.70;;
6358;SDS011;3212;51.460;11.868;2023-06-14T01:30:40;2.80;;;2.60;;
6358;SDS011;3212;51.460;11.868;2023-06-14T01:34:05;2.62;;;2.40;;
6358;SDS011;3212;51.460;11.868;2023-06-14T01:37:28;3.60;;;2.10;;
6358;SDS011;3212;51.460;11.868;2023-06-14T01:40:51;2.70;;;2.50;;
6358;SDS011;3212;51.460;11.868;2023-06-14T01:44:14;4.30;;;2.80;;
6358;SDS011;3212;51.460;11.868;2023-06-14T01:47:36;5.30;;;2.87;;
6358;SDS011;3212;51.460;11.868;2023-06-14T01:50:59;7.90;;;2.87;;
6358;SDS011;3212;51.460;11.868;2023-06-14T01:54:22;6.90;;;3.20;;
6358;SDS011;3212;51.460;11.868;2023-06-14T01:57:44;4.10;;;3.00;;
6358;SDS011;3212;51.460;11.868;2023-06-14T02:01:07;5.70;;;2.93;;
6358;SDS011;3212;51.460;11.868;2023-06-14T02:04:30;3.30;;;2.87;;
6358;SDS011;3212;51.460;11.868;2023-06-14T02:07:52;3.80;;;2.73;;
6358;SDS011;3212;51.460;11.868;2023-06-14T02:11:16;2.90;;;2.60;;
6358;SDS011;3212;51.460;11.868;2023-06-14T02:14:38;6.13;;;2.63;;
6358;SDS011;3212;51.460;11.868;2023-06-14T02:18:01;4.83;;;3.17;;
6358;SDS011;3212;51.460;11.868;2023-06-14T02:21:24;3.47;;;2.60;;
6358;SDS011;3212;51.460;11.868;2023-06-14T02:24:46;4.13;;;2.73;;
6358;SDS011;3212;51.460;11.868;2023-06-14T02:28:09;4.20;;;2.90;;
6358;SDS011;3212;51.460;11.868;2023-06-14T02:31:32;3.00;;;2.57;;
6358;SDS011;3212;51.460;11.868;2023-06-14T02:34:54;4.87;;;2.67;;
6358;SDS011;3212;51.460;11.868;2023-06-14T02:41:52;3.00;;;2.60;;
6358;SDS011;3212;51.460;11.868;2023-06-14T02:45:14;4.07;;;2.93;;
6358;SDS011;3212;51.460;11.868;2023-06-14T02:48:37;3.37;;;2.73;;
6358;SDS011;3212;51.460;11.868;2023-06-14T02:52:00;6.47;;;2.60;;
6358;SDS011;3212;51.460;11.868;2023-06-14T02:55:23;5.03;;;3.70;;
6358;SDS011;3212;51.460;11.868;2023-06-14T02:58:45;5.73;;;3.30;;
6358;SDS011;3212;51.460;11.868;2023-06-14T03:02:08;3.40;;;2.90;;
6358;SDS011;3212;51.460;11.868;2023-06-14T03:05:30;4.27;;;3.37;;
6358;SDS011;3212;51.460;11.868;2023-06-14T03:08:53;3.13;;;2.87;;
6358;SDS011;3212;51.460;11.868;2023-06-14T03:12:16;5.37;;;2.90;;
6358;SDS011;3212;51.460;11.868;2023-06-14T03:15:38;3.70;;;2.27;;
6358;SDS011;3212;51.460;11.868;2023-06-14T03:19:00;5.67;;;3.10;;
6358;SDS011;3212;51.460;11.868;2023-06-14T03:22:24;3.15;;;2.50;;
6358;SDS011;3212;51.460;11.868;2023-06-14T03:25:46;2.63;;;2.43;;
6358;SDS011;3212;51.460;11.868;2023-06-14T03:29:08;2.63;;;2.43;;
6358;SDS011;3212;51.460;11.868;2023-06-14T03:32:32;3.27;;;2.97;;
6358;SDS011;3212;51.460;11.868;2023-06-14T03:35:56;6.43;;;2.70;;
6358;SDS011;3212;51.460;11.868;2023-06-14T03:39:18;4.60;;;2.57;;
6358;SDS011;3212;51.460;11.868;2023-06-14T03:42:41;4.70;;;3.10;;
6358;SDS011;3212;51.460;11.868;2023-06-14T03:46:03;4.50;;;2.70;;
6358;SDS011;3212;51.460;11.868;2023-06-14T03:49:25;5.07;;;2.90;;
6358;SDS011;3212;51.460;11.868;2023-06-14T03:56:25;3.40;;;3.10;;
6358;SDS011;3212;51.460;11.868;2023-06-14T03:59:47;3.00;;;2.70;;
6358;SDS011;3212;51.460;11.868;2023-06-14T04:03:10;4.83;;;3.47;;
6358;SDS011;3212;51.460;11.868;2023-06-14T04:06:32;5.33;;;2.90;;
6358;SDS011;3212;51.460;11.868;2023-06-14T04:09:55;5.27;;;3.10;;
6358;SDS011;3212;51.460;11.868;2023-06-14T04:13:18;4.10;;;3.03;;
6358;SDS011;3212;51.460;11.868;2023-06-14T04:16:42;2.73;;;2.53;;
6358;SDS011;3212;51.460;11.868;2023-06-14T04:20:06;4.33;;;2.73;;
6358;SDS011;3212;51.460;11.868;2023-06-14T04:23:29;3.17;;;2.87;;
6358;SDS011;3212;51.460;11.868;2023-06-14T04:26:51;3.63;;;3.03;;
6358;SDS011;3212;51.460;11.868;2023-06-14T04:30:14;3.67;;;3.17;;
6358;SDS011;3212;51.460;11.868;2023-06-14T04:33:36;3.90;;;3.30;;
6358;SDS011;3212;51.460;11.868;2023-06-14T04:37:07;4.47;;;3.50;;
6358;SDS011;3212;51.460;11.868;2023-06-14T04:40:30;4.23;;;3.23;;
6358;SDS011;3212;51.460;11.868;2023-06-14T04:43:52;5.20;;;3.40;;
6358;SDS011;3212;51.460;11.868;2023-06-14T04:47:15;6.97;;;3.40;;
6358;SDS011;3212;51.460;11.868;2023-06-14T04:50:39;3.60;;;3.30;;
6358;SDS011;3212;51.460;11.868;2023-06-14T04:54:02;4.30;;;3.40;;
6358;SDS011;3212;51.460;11.868;2023-06-14T04:57:24;4.85;;;3.65;;
6358;SDS011;3212;51.460;11.868;2023-06-14T05:00:46;4.53;;;3.87;;
6358;SDS011;3212;51.460;11.868;2023-06-14T05:04:09;4.30;;;3.30;;
6358;SDS011;3212;51.460;11.868;2023-06-14T05:07:32;4.13;;;3.57;;
6358;SDS011;3212;51.460;11.868;2023-06-14T05:11:00;5.10;;;3.70;;
6358;SDS011;3212;51.460;11.868;2023-06-14T05:14:22;5.40;;;3.80;;
6358;SDS011;3212;51.460;11.868;2023-06-14T05:17:46;5.90;;;3.80;;
6358;SDS011;3212;51.460;11.868;2023-06-14T05:21:13;5.27;;;4.27;;
6358;SDS011;3212;51.460;11.868;2023-06-14T05:24:36;4.77;;;3.90;;
6358;SDS011;3212;51.460;11.868;2023-06-14T05:28:01;10.30;;;4.00;;
6358;SDS011;3212;51.460;11.868;2023-06-14T05:31:27;6.30;;;4.50;;
6358;SDS011;3212;51.460;11.868;2023-06-14T05:34:49;4.90;;;3.70;;
6358;SDS011;3212;51.460;11.868;2023-06-14T05:38:12;11.13;;;4.00;;
6358;SDS011;3212;51.460;11.868;2023-06-14T05:41:38;5.90;;;4.00;;
6358;SDS011;3212;51.460;11.868;2023-06-14T05:45:07;4.30;;;3.93;;
6358;SDS011;3212;51.460;11.868;2023-06-14T05:48:30;5.80;;;3.97;;
6358;SDS011;3212;51.460;11.868;2023-06-14T05:51:52;5.37;;;4.63;;
6358;SDS011;3212;51.460;11.868;2023-06-14T05:55:17;4.80;;;4.30;;
6358;SDS011;3212;51.460;11.868;2023-06-14T05:58:43;5.78;;;4.37;;
6358;SDS011;3212;51.460;11.868;2023-06-14T06:02:09;4.60;;;3.93;;
6358;SDS011;3212;51.460;11.868;2023-06-14T06:05:32;8.30;;;4.23;;
6358;SDS011;3212;51.460;11.868;2023-06-14T06:08:55;8.20;;;4.17;;
6358;SDS011;3212;51.460;11.868;2023-06-14T06:12:18;6.13;;;4.63;;
6358;SDS011;3212;51.460;11.868;2023-06-14T06:15:42;6.70;;;4.27;;
6358;SDS011;3212;51.460;11.868;2023-06-14T06:19:05;8.00;;;4.30;;
6358;SDS011;3212;51.460;11.868;2023-06-14T06:22:29;9.00;;;4.70;;
6358;SDS011;3212;51.460;11.868;2023-06-14T06:25:52;5.80;;;5.20;;
6358;SDS011;3212;51.460;11.868;2023-06-14T06:29:23;6.43;;;4.90;;
6358;SDS011;3212;51.460;11.868;2023-06-14T06:32:52;5.73;;;4.80;;
6358;SDS011;3212;51.460;11.868;2023-06-14T06:36:24;6.53;;;4.70;;
6358;SDS011;3212;51.460;11.868;2023-06-14T06:39:47;5.80;;;4.80;;
6358;SDS011;3212;51.460;11.868;2023-06-14T06:43:10;5.80;;;5.20;;
6358;SDS011;3212;51.460;11.868;2023-06-14T06:46:32;5.37;;;4.77;;
6358;SDS011;3212;51.460;11.868;2023-06-14T06:50:04;6.80;;;5.20;;
6358;SDS011;3212;51.460;11.868;2023-06-14T06:53:35;5.73;;;4.60;;
6358;SDS011;3212;51.460;11.868;2023-06-14T06:56:58;6.77;;;4.53;;
6358;SDS011;3212;51.460;11.868;2023-06-14T07:00:21;5.10;;;4.60;;
6358;SDS011;3212;51.460;11.868;2023-06-14T07:03:43;6.03;;;4.77;;
6358;SDS011;3212;51.460;11.868;2023-06-14T07:07:06;4.77;;;4.13;;
6358;SDS011;3212;51.460;11.868;2023-06-14T07:10:32;8.17;;;4.73;;
6358;SDS011;3212;51.460;11.868;2023-06-14T07:14:04;7.43;;;4.60;;
6358;SDS011;3212;51.460;11.868;2023-06-14T07:17:35;5.60;;;4.13;;
6358;SDS011;3212;51.460;11.868;2023-06-14T07:21:00;5.97;;;4.40;;
6358;SDS011;3212;51.460;11.868;2023-06-14T07:24:25;5.30;;;3.87;;
6358;SDS011;3212;51.460;11.868;2023-06-14T07:27:48;5.63;;;4.60;;
6358;SDS011;3212;51.460;11.868;2023-06-14T07:31:12;7.07;;;4.50;;
6358;SDS011;3212;51.460;11.868;2023-06-14T07:34:34;5.73;;;4.43;;
6358;SDS011;3212;51.460;11.868;2023-06-14T07:37:57;6.00;;;4.97;;
6358;SDS011;3212;51.460;11.868;2023-06-14T07:41:20;5.53;;;3.77;;
6358;SDS011;3212;51.460;11.868;2023-06-14T07:44:47;4.40;;;3.90;;
6358;SDS011;3212;51.460;11.868;2023-06-14T07:48:16;5.00;;;4.50;;
6358;SDS011;3212;51.460;11.868;2023-06-14T07:51:39;4.60;;;4.20;;
6358;SDS011;3212;51.460;11.868;2023-06-14T07:55:13;6.20;;;3.70;;
6358;SDS011;3212;51.460;11.868;2023-06-14T07:58:46;4.90;;;3.60;;
6358;SDS011;3212;51.460;11.868;2023-06-14T08:02:26;6.43;;;3.43;;
6358;SDS011;3212;51.460;11.868;2023-06-14T08:05:53;4.33;;;3.40;;
6358;SDS011;3212;51.460;11.868;2023-06-14T08:09:16;3.83;;;3.53;;
6358;SDS011;3212;51.460;11.868;2023-06-14T08:12:39;4.20;;;3.53;;
6358;SDS011;3212;51.460;11.868;2023-06-14T08:16:03;3.90;;;3.50;;
6358;SDS011;3212;51.460;11.868;2023-06-14T08:19:29;4.80;;;3.90;;
6358;SDS011;3212;51.460;11.868;2023-06-14T08:22:55;4.60;;;4.07;;
6358;SDS011;3212;51.460;11.868;2023-06-14T08:26:19;6.30;;;4.30;;
6358;SDS011;3212;51.460;11.868;2023-06-14T08:29:43;6.37;;;4.43;;
6358;SDS011;3212;51.460;11.868;2023-06-14T08:33:05;4.10;;;3.70;;
6358;SDS011;3212;51.460;11.868;2023-06-14T08:36:28;5.40;;;4.20;;
6358;SDS011;3212;51.460;11.868;2023-06-14T08:39:51;6.23;;;4.30;;
6358;SDS011;3212;51.460;11.868;2023-06-14T08:43:14;6.20;;;3.60;;
6358;SDS011;3212;51.460;11.868;2023-06-14T08:46:37;8.88;;;4.20;;
6358;SDS011;3212;51.460;11.868;2023-06-14T08:50:00;7.10;;;3.80;;
6358;SDS011;3212;51.460;11.868;2023-06-14T08:53:22;4.93;;;3.73;;
6358;SDS011;3212;51.460;11.868;2023-06-14T08:56:45;4.20;;;3.23;;
6358;SDS011;3212;51.460;11.868;2023-06-14T09:00:08;4.10;;;3.57;;
6358;SDS011;3212;51.460;11.868;2023-06-14T09:03:31;10.27;;;3.97;;
6358;SDS011;3212;51.460;11.868;2023-06-14T09:06:54;7.87;;;4.33;;
6358;SDS011;3212;51.460;11.868;2023-06-14T09:10:17;5.20;;;3.47;;
6358;SDS011;3212;51.460;11.868;2023-06-14T09:13:40;8.23;;;4.17;;
6358;SDS011;3212;51.460;11.868;2023-06-14T09:17:04;4.00;;;3.40;;
6358;SDS011;3212;51.460;11.868;2023-06-14T09:20:28;4.03;;;3.60;;
6358;SDS011;3212;51.460;11.868;2023-06-14T09:23:50;5.30;;;3.70;;
6358;SDS011;3212;51.460;11.868;2023-06-14T09:27:15;4.43;;;3.80;;
6358;SDS011;3212;51.460;11.868;2023-06-14T09:30:37;5.13;;;3.47;;
6358;SDS011;3212;51.460;11.868;2023-06-14T09:34:01;4.30;;;3.70;;
6358;SDS011;3212;51.460;11.868;2023-06-14T09:37:27;4.63;;;3.40;;
6358;SDS011;3212;51.460;11.868;2023-06-14T09:40:50;4.30;;;3.70;;
6358;SDS011;3212;51.460;11.868;2023-06-14T09:44:12;4.67;;;3.30;;
6358;SDS011;3212;51.460;11.868;2023-06-14T09:47:35;4.90;;;3.70;;
6358;SDS011;3212;51.460;11.868;2023-06-14T09:50:58;5.40;;;3.40;;
6358;SDS011;3212;51.460;11.868;2023-06-14T09:54:22;3.50;;;3.20;;
6358;SDS011;3212;51.460;11.868;2023-06-14T09:57:44;3.63;;;3.33;;
6358;SDS011;3212;51.460;11.868;2023-06-14T10:01:08;3.53;;;3.17;;
6358;SDS011;3212;51.460;11.868;2023-06-14T10:04:30;2.90;;;2.70;;
6358;SDS011;3212;51.460;11.868;2023-06-14T10:07:53;3.57;;;2.87;;
6358;SDS011;3212;51.460;11.868;2023-06-14T10:11:15;2.80;;;2.60;;
6358;SDS011;3212;51.460;11.868;2023-06-14T10:14:37;3.73;;;2.47;;
6358;SDS011;3212;51.460;11.868;2023-06-14T10:21:32;6.03;;;2.47;;
6358;SDS011;3212;51.460;11.868;2023-06-14T10:24:57;7.20;;;2.57;;
6358;SDS011;3212;51.460;11.868;2023-06-14T10:28:21;2.67;;;2.47;;
6358;SDS011;3212;51.460;11.868;2023-06-14T10:31:56;2.73;;;2.37;;
6358;SDS011;3212;51.460;11.868;2023-06-14T10:35:15;2.50;;;2.30;;
6358;SDS011;3212;51.460;11.868;2023-06-14T10:38:36;2.43;;;2.23;;
6358;SDS011;3212;51.460;11.868;2023-06-14T10:42:01;3.07;;;2.47;;
6358;SDS011;3212;51.460;11.868;2023-06-14T10:45:22;2.27;;;2.07;;
6358;SDS011;3212;51.460;11.868;2023-06-14T10:48:44;2.13;;;2.03;;
6358;SDS011;3212;51.460;11.868;2023-06-14T10:52:09;4.77;;;2.50;;
6358;SDS011;3212;51.460;11.868;2023-06-14T10:55:34;5.03;;;2.87;;
6358;SDS011;3212;51.460;11.868;2023-06-14T10:58:57;4.03;;;2.50;;
6358;SDS011;3212;51.460;11.868;2023-06-14T11:02:27;9.20;;;3.10;;
6358;SDS011;3212;51.460;11.868;2023-06-14T11:05:59;6.10;;;2.90;;
6358;SDS011;3212;51.460;11.868;2023-06-14T11:09:36;4.47;;;2.40;;
6358;SDS011;3212;51.460;11.868;2023-06-14T11:12:56;3.00;;;2.70;;
6358;SDS011;3212;51.460;11.868;2023-06-14T11:16:18;5.17;;;2.30;;
6358;SDS011;3212;51.460;11.868;2023-06-14T11:19:42;4.60;;;2.60;;
6358;SDS011;3212;51.460;11.868;2023-06-14T11:23:04;4.57;;;3.07;;
6358;SDS011;3212;51.460;11.868;2023-06-14T11:26:27;3.13;;;2.60;;
6358;SDS011;3212;51.460;11.868;2023-06-14T11:29:50;3.13;;;2.83;;
6358;SDS011;3212;51.460;11.868;2023-06-14T11:33:16;3.40;;;2.70;;
6358;SDS011;3212;51.460;11.868;2023-06-14T11:36:40;3.03;;;2.73;;
6358;SDS011;3212;51.460;11.868;2023-06-14T11:40:07;4.93;;;3.07;;
6358;SDS011;3212;51.460;11.868;2023-06-14T11:43:34;4.03;;;3.30;;
6358;SDS011;3212;51.460;11.868;2023-06-14T11:46:59;3.10;;;2.80;;
6358;SDS011;3212;51.460;11.868;2023-06-14T11:50:22;5.40;;;3.57;;
6358;SDS011;3212;51.460;11.868;2023-06-14T11:53:44;3.33;;;3.03;;
6358;SDS011;3212;51.460;11.868;2023-06-14T11:57:07;6.00;;;3.30;;
6358;SDS011;3212;51.460;11.868;2023-06-14T12:00:29;11.40;;;3.47;;
6358;SDS011;3212;51.460;11.868;2023-06-14T12:03:52;3.20;;;2.90;;
6358;SDS011;3212;51.460;11.868;2023-06-14T12:07:15;4.20;;;3.20;;
6358;SDS011;3212;51.460;11.868;2023-06-14T12:10:39;4.60;;;3.30;;
6358;SDS011;3212;51.460;11.868;2023-06-14T12:14:02;3.40;;;3.10;;
6358;SDS011;3212;51.460;11.868;2023-06-14T12:17:24;3.50;;;3.13;;
6358;SDS011;3212;51.460;11.868;2023-06-14T12:20:49;3.97;;;3.50;;
6358;SDS011;3212;51.460;11.868;2023-06-14T12:24:11;3.40;;;3.10;;
6358;SDS011;3212;51.460;11.868;2023-06-14T12:27:33;3.40;;;2.90;;
6358;SDS011;3212;51.460;11.868;2023-06-14T12:30:56;7.30;;;3.97;;
6358;SDS011;3212;51.460;11.868;2023-06-14T12:34:19;4.20;;;3.23;;
6358;SDS011;3212;51.460;11.868;2023-06-14T12:37:41;7.10;;;3.23;;
6358;SDS011;3212;51.460;11.868;2023-06-14T12:41:04;4.00;;;3.70;;
6358;SDS011;3212;51.460;11.868;2023-06-14T12:44:27;5.00;;;3.93;;
6358;SDS011;3212;51.460;11.868;2023-06-14T12:47:49;9.20;;;4.00;;
6358;SDS011;3212;51.460;11.868;2023-06-14T12:51:12;5.00;;;3.50;;
6358;SDS011;3212;51.460;11.868;2023-06-14T12:54:35;7.60;;;4.20;;
6358;SDS011;3212;51.460;11.868;2023-06-14T12:57:58;6.30;;;3.50;;
6358;SDS011;3212;51.460;11.868;2023-06-14T13:01:22;4.90;;;3.40;;
6358;SDS011;3212;51.460;11.868;2023-06-14T13:04:45;20.70;;;4.40;;
6358;SDS011;3212;51.460;11.868;2023-06-14T13:08:08;3.70;;;3.40;;
6358;SDS011;3212;51.460;11.868;2023-06-14T13:11:31;4.30;;;3.90;;
6358;SDS011;3212;51.460;11.868;2023-06-14T13:14:53;6.43;;;4.17;;
6358;SDS011;3212;51.460;11.868;2023-06-14T13:18:16;4.40;;;3.90;;
6358;SDS011;3212;51.460;11.868;2023-06-14T13:21:38;5.07;;;4.00;;
6358;SDS011;3212;51.460;11.868;2023-06-14T13:25:01;4.20;;;3.57;;
6358;SDS011;3212;51.460;11.868;2023-06-14T13:28:23;10.90;;;4.30;;
6358;SDS011;3212;51.460;11.868;2023-06-14T13:31:46;4.07;;;3.67;;
6358;SDS011;3212;51.460;11.868;2023-06-14T13:35:10;9.80;;;4.10;;
6358;SDS011;3212;51.460;11.868;2023-06-14T13:38:32;7.10;;;3.90;;
6358;SDS011;3212;51.460;11.868;2023-06-14T13:41:55;7.10;;;5.20;;
6358;SDS011;3212;51.460;11.868;2023-06-14T13:45:18;4.60;;;4.00;;
6358;SDS011;3212;51.460;11.868;2023-06-14T13:48:42;6.63;;;3.93;;
6358;SDS011;3212;51.460;11.868;2023-06-14T13:52:05;7.07;;;4.93;;
6358;SDS011;3212;51.460;11.868;2023-06-14T13:55:29;4.80;;;3.77;;
6358;SDS011;3212;51.460;11.868;2023-06-14T13:58:52;6.70;;;4.17;;
6358;SDS011;3212;51.460;11.868;2023-06-14T14:02:22;4.10;;;3.70;;
6358;SDS011;3212;51.460;11.868;2023-06-14T14:05:53;3.43;;;3.13;;
6358;SDS011;3212;51.460;11.868;2023-06-14T14:09:16;4.67;;;3.17;;
6358;SDS011;3212;51.460;11.868;2023-06-14T14:12:39;4.43;;;3.90;;
6358;SDS011;3212;51.460;11.868;2023-06-14T14:16:01;4.10;;;3.47;;
6358;SDS011;3212;51.460;11.868;2023-06-14T14:19:24;4.10;;;3.57;;
6358;SDS011;3212;51.460;11.868;2023-06-14T14:22:50;5.10;;;3.50;;
6358;SDS011;3212;51.460;11.868;2023-06-14T14:26:12;4.37;;;3.97;;
6358;SDS011;3212;51.460;11.868;2023-06-14T14:29:36;5.00;;;3.70;;
6358;SDS011;3212;51.460;11.868;2023-06-14T14:33:00;5.50;;;3.50;;
6358;SDS011;3212;51.460;11.868;2023-06-14T14:36:23;6.80;;;3.77;;
6358;SDS011;3212;51.460;11.868;2023-06-14T14:39:47;4.60;;;3.67;;
6358;SDS011;3212;51.460;11.868;2023-06-14T14:43:09;5.30;;;3.50;;
6358;SDS011;3212;51.460;11.868;2023-06-14T14:46:32;5.60;;;3.30;;
6358;SDS011;3212;51.460;11.868;2023-06-14T14:49:54;5.07;;;3.40;;
6358;SDS011;3212;51.460;11.868;2023-06-14T14:53:17;6.53;;;3.77;;
6358;SDS011;3212;51.460;11.868;2023-06-14T14:56:42;4.23;;;3.83;;
6358;SDS011;3212;51.460;11.868;2023-06-14T15:00:07;7.20;;;3.70;;
6358;SDS011;3212;51.460;11.868;2023-06-14T15:03:30;4.00;;;3.60;;
6358;SDS011;3212;51.460;11.868;2023-06-14T15:06:53;4.37;;;3.97;;
6358;SDS011;3212;51.460;11.868;2023-06-14T15:10:16;5.90;;;3.43;;
6358;SDS011;3212;51.460;11.868;2023-06-14T15:13:39;4.20;;;3.37;;
6358;SDS011;3212;51.460;11.868;2023-06-14T15:17:01;3.80;;;3.50;;
6358;SDS011;3212;51.460;11.868;2023-06-14T15:20:24;8.67;;;3.90;;
6358;SDS011;3212;51.460;11.868;2023-06-14T15:23:47;4.40;;;4.00;;
6358;SDS011;3212;51.460;11.868;2023-06-14T15:27:12;3.53;;;3.17;;
6358;SDS011;3212;51.460;11.868;2023-06-14T15:30:34;4.27;;;3.50;;
6358;SDS011;3212;51.460;11.868;2023-06-14T15:33:57;3.97;;;3.40;;
6358;SDS011;3212;51.460;11.868;2023-06-14T15:37:20;5.13;;;3.87;;
6358;SDS011;3212;51.460;11.868;2023-06-14T15:40:45;7.90;;;3.80;;
6358;SDS011;3212;51.460;11.868;2023-06-14T15:44:08;3.50;;;3.20;;
6358;SDS011;3212;51.460;11.868;2023-06-14T15:47:32;3.37;;;3.00;;
6358;SDS011;3212;51.460;11.868;2023-06-14T15:50:54;3.40;;;3.07;;
6358;SDS011;3212;51.460;11.868;2023-06-14T15:54:17;7.57;;;3.53;;
6358;SDS011;3212;51.460;11.868;2023-06-14T15:57:40;6.90;;;3.50;;
6358;SDS011;3212;51.460;11.868;2023-06-14T16:01:02;3.97;;;2.80;;
6358;SDS011;3212;51.460;11.868;2023-06-14T16:04:25;8.60;;;3.57;;
6358;SDS011;3212;51.460;11.868;2023-06-14T16:07:47;4.70;;;3.90;;
6358;SDS011;3212;51.460;11.868;2023-06-14T16:11:11;3.40;;;3.10;;
6358;SDS011;3212;51.460;11.868;2023-06-14T16:14:33;3.63;;;3.30;;
6358;SDS011;3212;51.460;11.868;2023-06-14T16:17:55;5.37;;;3.30;;
6358;SDS011;3212;51.460;11.868;2023-06-14T16:21:18;4.70;;;3.50;;
6358;SDS011;3212;51.460;11.868;2023-06-14T16:24:41;4.90;;;3.33;;
6358;SDS011;3212;51.460;11.868;2023-06-14T16:28:03;3.93;;;3.53;;
6358;SDS011;3212;51.460;11.868;2023-06-14T16:31:26;5.83;;;3.33;;
6358;SDS011;3212;51.460;11.868;2023-06-14T16:34:49;4.53;;;3.13;;
6358;SDS011;3212;51.460;11.868;2023-06-14T16:38:12;8.73;;;3.27;;
6358;SDS011;3212;51.460;11.868;2023-06-14T16:41:36;4.62;;;3.12;;
6358;SDS011;3212;51.460;11.868;2023-06-14T16:45:01;7.40;;;3.17;;
6358;SDS011;3212;51.460;11.868;2023-06-14T16:48:33;5.33;;;3.33;;
6358;SDS011;3212;51.460;11.868;2023-06-14T16:51:55;4.23;;;3.20;;
6358;SDS011;3212;51.460;11.868;2023-06-14T16:55:18;3.93;;;3.50;;
6358;SDS011;3212;51.460;11.868;2023-06-14T16:58:41;4.17;;;3.20;;
6358;SDS011;3212;51.460;11.868;2023-06-14T17:02:04;3.53;;;3.17;;
6358;SDS011;3212;51.460;11.868;2023-06-14T17:05:27;4.70;;;3.23;;
6358;SDS011;3212;51.460;11.868;2023-06-14T17:08:51;4.90;;;3.17;;
6358;SDS011;3212;51.460;11.868;2023-06-14T17:12:14;5.70;;;2.90;;
6358;SDS011;3212;51.460;11.868;2023-06-14T17:15:37;4.60;;;3.00;;
6358;SDS011;3212;51.460;11.868;2023-06-14T17:19:00;5.20;;;3.30;;
6358;SDS011;3212;51.460;11.868;2023-06-14T17:22:22;3.60;;;3.30;;
6358;SDS011;3212;51.460;11.868;2023-06-14T17:25:47;3.60;;;3.30;;
6358;SDS011;3212;51.460;11.868;2023-06-14T17:29:10;4.77;;;3.27;;
6358;SDS011;3212;51.460;11.868;2023-06-14T17:32:34;3.13;;;2.83;;
6358;SDS011;3212;51.460;11.868;2023-06-14T17:36:00;2.97;;;2.77;;
6358;SDS011;3212;51.460;11.868;2023-06-14T17:39:23;8.43;;;3.20;;
6358;SDS011;3212;51.460;11.868;2023-06-14T17:42:47;6.73;;;2.57;;
6358;SDS011;3212;51.460;11.868;2023-06-14T17:46:10;5.00;;;2.80;;
6358;SDS011;3212;51.460;11.868;2023-06-14T17:49:32;2.83;;;2.60;;
6358;SDS011;3212;51.460;11.868;2023-06-14T17:52:58;4.63;;;2.60;;
6358;SDS011;3212;51.460;11.868;2023-06-14T17:56:21;3.33;;;2.70;;
6358;SDS011;3212;51.460;11.868;2023-06-14T17:59:43;3.33;;;3.03;;
6358;SDS011;3212;51.460;11.868;2023-06-14T18:03:06;3.20;;;2.90;;
6358;SDS011;3212;51.460;11.868;2023-06-14T18:06:29;4.53;;;3.00;;
6358;SDS011;3212;51.460;11.868;2023-06-14T18:09:53;4.53;;;3.00;;
6358;SDS011;3212;51.460;11.868;2023-06-14T18:13:18;4.03;;;3.13;;
6358;SDS011;3212;51.460;11.868;2023-06-14T18:16:43;3.20;;;2.90;;
6358;SDS011;3212;51.460;11.868;2023-06-14T18:20:08;4.60;;;3.10;;
6358;SDS011;3212;51.460;11.868;2023-06-14T18:23:31;7.50;;;3.50;;
6358;SDS011;3212;51.460;11.868;2023-06-14T18:26:53;4.13;;;3.20;;
6358;SDS011;3212;51.460;11.868;2023-06-14T18:30:16;4.73;;;3.00;;
6358;SDS011;3212;51.460;11.868;2023-06-14T18:33:39;4.10;;;3.30;;
6358;SDS011;3212;51.460;11.868;2023-06-14T18:37:01;6.60;;;3.17;;
6358;SDS011;3212;51.460;11.868;2023-06-14T18:40:24;5.13;;;3.07;;
6358;SDS011;3212;51.460;11.868;2023-06-14T18:43:47;5.27;;;3.27;;
6358;SDS011;3212;51.460;11.868;2023-06-14T18:47:08;4.67;;;3.00;;
6358;SDS011;3212;51.460;11.868;2023-06-14T18:50:32;6.63;;;3.40;;
6358;SDS011;3212;51.460;11.868;2023-06-14T18:53:58;4.97;;;3.30;;
6358;SDS011;3212;51.460;11.868;2023-06-14T18:57:21;4.47;;;3.53;;
6358;SDS011;3212;51.460;11.868;2023-06-14T19:00:46;4.50;;;3.47;;
6358;SDS011;3212;51.460;11.868;2023-06-14T19:04:11;4.63;;;3.50;;
6358;SDS011;3212;51.460;11.868;2023-06-14T19:11:21;6.40;;;3.47;;
6358;SDS011;3212;51.460;11.868;2023-06-14T19:14:44;6.40;;;3.30;;
6358;SDS011;3212;51.460;11.868;2023-06-14T19:18:07;3.70;;;3.30;;
6358;SDS011;3212;51.460;11.868;2023-06-14T19:21:32;3.90;;;3.43;;
6358;SDS011;3212;51.460;11.868;2023-06-14T19:24:55;5.70;;;3.43;;
6358;SDS011;3212;51.460;11.868;2023-06-14T19:28:17;3.67;;;3.30;;
6358;SDS011;3212;51.460;11.868;2023-06-14T19:31:40;8.03;;;3.40;;
6358;SDS011;3212;51.460;11.868;2023-06-14T19:35:02;5.67;;;3.60;;
6358;SDS011;3212;51.460;11.868;2023-06-14T19:38:25;4.90;;;3.23;;
6358;SDS011;3212;51.460;11.868;2023-06-14T19:41:47;4.33;;;3.40;;
6358;SDS011;3212;51.460;11.868;2023-06-14T19:45:11;6.00;;;3.77;;
6358;SDS011;3212;51.460;11.868;2023-06-14T19:48:34;4.47;;;3.43;;
6358;SDS011;3212;51.460;11.868;2023-06-14T19:51:56;4.27;;;3.17;;
6358;SDS011;3212;51.460;11.868;2023-06-14T19:55:19;11.80;;;3.67;;
6358;SDS011;3212;51.460;11.868;2023-06-14T19:58:42;4.63;;;3.60;;
6358;SDS011;3212;51.460;11.868;2023-06-14T20:02:05;7.60;;;4.00;;
6358;SDS011;3212;51.460;11.868;2023-06-14T20:05:27;3.53;;;3.23;;
6358;SDS011;3212;51.460;11.868;2023-06-14T20:08:50;3.60;;;3.30;;
6358;SDS011;3212;51.460;11.868;2023-06-14T20:12:19;3.70;;;3.20;;
6358;SDS011;3212;51.460;11.868;2023-06-14T20:15:51;3.50;;;3.20;;
6358;SDS011;3212;51.460;11.868;2023-06-14T20:19:14;3.47;;;3.17;;
6358;SDS011;3212;51.460;11.868;2023-06-14T20:22:37;4.00;;;3.33;;
6358;SDS011;3212;51.460;11.868;2023-06-14T20:26:00;4.40;;;2.90;;
6358;SDS011;3212;51.460;11.868;2023-06-14T20:29:23;6.33;;;4.13;;
6358;SDS011;3212;51.460;11.868;2023-06-14T20:32:46;5.87;;;4.07;;
6358;SDS011;3212;51.460;11.868;2023-06-14T20:36:09;6.30;;;4.00;;
6358;SDS011;3212;51.460;11.868;2023-06-14T20:39:32;3.63;;;3.30;;
6358;SDS011;3212;51.460;11.868;2023-06-14T20:42:55;5.63;;;3.67;;
6358;SDS011;3212;51.460;11.868;2023-06-14T20:46:17;7.97;;;3.73;;
6358;SDS011;3212;51.460;11.868;2023-06-14T20:49:40;5.77;;;3.90;;
6358;SDS011;3212;51.460;11.868;2023-06-14T20:53:05;5.83;;;3.60;;
6358;SDS011;3212;51.460;11.868;2023-06-14T20:56:28;4.73;;;3.73;;
6358;SDS011;3212;51.460;11.868;2023-06-14T20:59:52;4.45;;;3.87;;
6358;SDS011;3212;51.460;11.868;2023-06-14T21:03:14;5.07;;;3.67;;